createdAt,value
2022-08-17T00:01:02.712Z,23.76
2022-08-17T00:02:13.216Z,23.75
2022-08-17T00:03:38.131Z,23.72
2022-08-17T00:04:40.375Z,23.70
2022-08-17T00:05:55.075Z,23.69
2022-08-17T00:06:57.409Z,23.67
2022-08-17T00:07:59.711Z,23.65
2022-08-17T00:09:04.294Z,23.64
2022-08-17T00:10:07.070Z,23.62
2022-08-17T00:11:14.426Z,23.60
2022-08-17T00:12:40.868Z,23.57
2022-08-17T00:13:51.211Z,23.54
2022-08-17T00:14:58.182Z,23.53
2022-08-17T00:16:04.430Z,23.52
2022-08-17T00:17:07.129Z,23.49
2022-08-17T00:19:06.395Z,23.47
2022-08-17T00:19:33.072Z,23.45
2022-08-17T00:20:35.313Z,23.43
2022-08-17T00:22:31.394Z,23.41
2022-08-17T00:23:08.264Z,23.39
2022-08-17T00:24:10.702Z,23.37
2022-08-17T00:25:16.895Z,23.35
2022-08-17T00:26:43.410Z,23.33
2022-08-17T00:27:43.954Z,23.31
2022-08-17T00:28:46.220Z,23.29
2022-08-17T00:29:48.510Z,23.28
2022-08-17T00:30:53.695Z,23.26
2022-08-17T00:31:56.166Z,23.24
2022-08-17T00:33:22.800Z,23.23
2022-08-17T00:34:20.946Z,23.21
2022-08-17T00:35:26.309Z,23.19
2022-08-17T00:36:28.930Z,23.19
2022-08-17T00:37:31.142Z,23.16
2022-08-17T00:38:36.577Z,23.15
2022-08-17T00:39:38.822Z,23.13
2022-08-17T00:40:44.955Z,23.11
2022-08-17T00:41:47.808Z,23.09
2022-08-17T00:42:50.369Z,23.07
2022-08-17T00:43:56.632Z,23.05
2022-08-17T00:44:59.602Z,23.05
2022-08-17T00:46:08.012Z,23.03
2022-08-17T00:47:10.210Z,23.01
2022-08-17T00:48:29.285Z,22.99
2022-08-17T00:49:33.507Z,22.98
2022-08-17T00:50:35.999Z,22.96
2022-08-17T00:52:00.517Z,22.93
2022-08-17T00:53:04.685Z,22.93
2022-08-17T00:54:14.605Z,22.90
2022-08-17T00:55:18.123Z,22.89
2022-08-17T00:56:28.369Z,22.87
2022-08-17T00:57:39.060Z,22.85
2022-08-17T00:58:41.672Z,22.84
2022-08-17T00:59:58.629Z,22.81
2022-08-17T01:01:08.899Z,22.79
2022-08-17T01:02:14.475Z,22.78
2022-08-17T01:03:25.377Z,22.77
2022-08-17T01:04:30.276Z,22.75
2022-08-17T01:05:34.581Z,22.73
2022-08-17T01:06:37.775Z,22.72
2022-08-17T01:07:40.853Z,22.69
2022-08-17T01:08:43.238Z,22.69
2022-08-17T01:09:45.525Z,22.67
2022-08-17T01:11:00.582Z,22.67
2022-08-17T01:12:09.496Z,22.66
2022-08-17T01:13:12.830Z,22.63
2022-08-17T01:14:15.066Z,22.61
2022-08-17T01:15:17.353Z,22.59
2022-08-17T01:16:44.282Z,22.59
2022-08-17T01:17:47.164Z,22.56
2022-08-17T01:18:52.367Z,22.55
2022-08-17T01:19:54.994Z,22.53
2022-08-17T01:21:02.012Z,22.51
2022-08-17T01:22:14.411Z,22.49
2022-08-17T01:23:20.755Z,22.48
2022-08-17T01:24:23.527Z,22.46
2022-08-17T01:25:25.918Z,22.45
2022-08-17T01:26:33.132Z,22.43
2022-08-17T01:27:37.119Z,22.42
2022-08-17T01:28:54.397Z,22.40
2022-08-17T01:30:04.824Z,22.38
2022-08-17T01:31:32.810Z,22.37
2022-08-17T01:32:35.419Z,22.35
2022-08-17T01:33:37.956Z,22.35
2022-08-17T01:34:43.606Z,22.34
2022-08-17T01:35:52.542Z,22.32
2022-08-17T01:36:57.785Z,22.31
2022-08-17T01:38:00.012Z,22.29
2022-08-17T01:39:02.993Z,22.28
2022-08-17T01:40:16.793Z,22.27
2022-08-17T01:41:22.273Z,22.25
2022-08-17T01:42:34.505Z,22.25
2022-08-17T01:43:59.256Z,22.23
2022-08-17T01:45:06.873Z,22.22
2022-08-17T01:46:09.876Z,22.19
2022-08-17T01:47:12.117Z,22.19
2022-08-17T01:48:14.996Z,22.18
2022-08-17T01:49:18.143Z,22.16
2022-08-17T01:50:35.006Z,22.15
2022-08-17T01:51:37.784Z,22.13
2022-08-17T01:52:40.905Z,22.12
2022-08-17T01:53:48.570Z,22.11
2022-08-17T01:54:52.479Z,22.10
2022-08-17T01:56:06.800Z,22.07
2022-08-17T01:57:10.662Z,22.06
2022-08-17T01:58:13.403Z,22.04
2022-08-17T01:59:17.269Z,22.04
2022-08-17T02:00:19.537Z,22.02
2022-08-17T02:01:26.606Z,22.01
2022-08-17T02:02:30.265Z,21.99
2022-08-17T02:03:36.569Z,21.98
2022-08-17T02:04:38.752Z,21.96
2022-08-17T02:05:40.959Z,21.95
2022-08-17T02:07:03.345Z,21.94
2022-08-17T02:08:07.423Z,21.92
2022-08-17T02:09:14.695Z,21.90
2022-08-17T02:10:21.668Z,21.89
2022-08-17T02:11:24.300Z,21.87
2022-08-17T02:12:37.669Z,21.85
2022-08-17T02:13:44.183Z,21.83
2022-08-17T02:14:46.425Z,21.81
2022-08-17T02:15:48.676Z,21.80
2022-08-17T02:16:52.067Z,21.79
2022-08-17T02:17:54.668Z,21.77
2022-08-17T02:19:01.252Z,21.77
2022-08-17T02:20:05.138Z,21.75
2022-08-17T02:21:07.859Z,21.73
2022-08-17T02:22:10.336Z,21.72
2022-08-17T02:23:13.798Z,21.70
2022-08-17T02:25:00.419Z,21.69
2022-08-17T02:25:47.822Z,21.66
2022-08-17T02:26:50.014Z,21.66
2022-08-17T02:27:52.197Z,21.63
2022-08-17T02:28:54.997Z,21.61
2022-08-17T02:29:57.693Z,21.59
2022-08-17T02:31:08.417Z,21.56
2022-08-17T02:32:20.781Z,21.55
2022-08-17T02:33:42.857Z,21.53
2022-08-17T02:34:45.894Z,21.50
2022-08-17T02:35:48.708Z,21.49
2022-08-17T02:36:53.534Z,21.48
2022-08-17T02:37:56.038Z,21.47
2022-08-17T02:38:58.814Z,21.45
2022-08-17T02:40:01.222Z,21.44
2022-08-17T02:41:04.743Z,21.41
2022-08-17T02:42:07.238Z,21.38
2022-08-17T02:43:09.557Z,21.37
2022-08-17T02:44:12.428Z,21.34
2022-08-17T02:45:20.606Z,21.32
2022-08-17T02:46:22.885Z,21.30
2022-08-17T02:47:25.079Z,21.28
2022-08-17T02:48:31.226Z,21.25
2022-08-17T02:49:34.110Z,21.23
2022-08-17T02:50:37.217Z,21.22
2022-08-17T02:51:39.418Z,21.20
2022-08-17T02:52:44.180Z,21.18
2022-08-17T02:53:49.753Z,21.16
2022-08-17T02:54:51.929Z,21.14
2022-08-17T02:55:54.160Z,21.14
2022-08-17T02:56:56.780Z,21.12
2022-08-17T02:57:59.326Z,21.12
2022-08-17T02:59:01.517Z,21.10
2022-08-17T03:00:11.475Z,21.08
2022-08-17T03:01:14.092Z,21.07
2022-08-17T03:02:16.376Z,21.05
2022-08-17T03:03:19.097Z,21.05
2022-08-17T03:04:21.413Z,21.04
2022-08-17T03:05:26.456Z,21.03
2022-08-17T03:06:29.279Z,21.01
2022-08-17T03:07:31.927Z,20.99
2022-08-17T03:08:35.291Z,20.98
2022-08-17T03:09:38.218Z,20.98
2022-08-17T03:10:42.068Z,20.95
2022-08-17T03:11:44.584Z,20.94
2022-08-17T03:12:47.630Z,20.93
2022-08-17T03:13:50.560Z,20.92
2022-08-17T03:14:52.752Z,20.91
2022-08-17T03:16:04.030Z,20.89
2022-08-17T03:17:06.367Z,20.88
2022-08-17T03:18:08.566Z,20.87
2022-08-17T03:19:21.226Z,20.84
2022-08-17T03:20:25.743Z,20.83
2022-08-17T03:21:28.336Z,20.84
2022-08-17T03:22:36.583Z,20.82
2022-08-17T03:23:41.355Z,20.81
2022-08-17T03:24:44.246Z,20.80
2022-08-17T03:25:47.022Z,20.79
2022-08-17T03:26:49.296Z,20.79
2022-08-17T03:27:52.377Z,20.77
2022-08-17T03:28:54.790Z,20.78
2022-08-17T03:29:57.017Z,20.76
2022-08-17T03:30:59.313Z,20.76
2022-08-17T03:32:11.147Z,20.74
2022-08-17T03:33:13.418Z,20.73
2022-08-17T03:34:17.053Z,20.72
2022-08-17T03:35:21.987Z,20.72
2022-08-17T03:36:24.519Z,20.70
2022-08-17T03:37:27.208Z,20.68
2022-08-17T03:38:29.453Z,20.68
2022-08-17T03:39:41.865Z,20.66
2022-08-17T03:40:56.971Z,20.65
2022-08-17T03:42:31.591Z,20.65
2022-08-17T03:43:34.991Z,20.63
2022-08-17T03:44:38.459Z,20.61
2022-08-17T03:46:01.529Z,20.59
2022-08-17T03:47:23.599Z,20.59
2022-08-17T03:48:44.247Z,20.57
2022-08-17T03:50:05.046Z,20.56
2022-08-17T03:51:27.175Z,20.53
2022-08-17T03:52:54.619Z,20.51
2022-08-17T03:54:17.546Z,20.50
2022-08-17T03:55:39.088Z,20.48
2022-08-17T03:56:44.787Z,20.46
2022-08-17T03:57:47.022Z,20.44
2022-08-17T03:58:50.287Z,20.43
2022-08-17T03:59:54.065Z,20.42
2022-08-17T04:00:56.381Z,20.40
2022-08-17T04:02:03.855Z,20.39
2022-08-17T04:03:06.800Z,20.38
2022-08-17T04:04:13.845Z,20.36
2022-08-17T04:05:16.142Z,20.35
2022-08-17T04:06:18.317Z,20.34
2022-08-17T04:07:23.041Z,20.33
2022-08-17T04:08:25.221Z,20.31
2022-08-17T04:09:27.507Z,20.30
2022-08-17T04:10:30.400Z,20.30
2022-08-17T04:11:37.081Z,20.29
2022-08-17T04:12:48.709Z,20.29
2022-08-17T04:13:51.219Z,20.28
2022-08-17T04:14:55.052Z,20.26
2022-08-17T04:16:00.089Z,20.26
2022-08-17T04:17:02.705Z,20.25
2022-08-17T04:18:07.396Z,20.24
2022-08-17T04:19:09.992Z,20.24
2022-08-17T04:20:15.154Z,20.22
2022-08-17T04:21:18.028Z,20.22
2022-08-17T04:22:30.204Z,20.22
2022-08-17T04:23:36.694Z,20.20
2022-08-17T04:24:38.868Z,20.21
2022-08-17T04:25:49.162Z,20.21
2022-08-17T04:26:53.441Z,20.20
2022-08-17T04:27:57.206Z,20.20
2022-08-17T04:28:59.716Z,20.19
2022-08-17T04:30:02.435Z,20.18
2022-08-17T04:31:04.822Z,20.18
2022-08-17T04:32:08.938Z,20.17
2022-08-17T04:33:14.609Z,20.17
2022-08-17T04:34:19.731Z,20.16
2022-08-17T04:35:25.763Z,20.16
2022-08-17T04:36:28.432Z,20.16
2022-08-17T04:37:30.784Z,20.15
2022-08-17T04:38:36.267Z,20.15
2022-08-17T04:39:38.509Z,20.15
2022-08-17T04:40:59.988Z,20.14
2022-08-17T04:42:09.421Z,20.15
2022-08-17T04:43:14.877Z,20.15
2022-08-17T04:44:28.289Z,20.15
2022-08-17T04:45:51.303Z,20.15
2022-08-17T04:46:57.927Z,20.16
2022-08-17T04:48:01.473Z,20.16
2022-08-17T04:49:09.553Z,20.18
2022-08-17T04:50:11.786Z,20.19
2022-08-17T04:51:24.888Z,20.19
2022-08-17T04:52:29.845Z,20.21
2022-08-17T04:53:53.970Z,20.23
2022-08-17T04:54:57.018Z,20.24
2022-08-17T04:55:59.286Z,20.26
2022-08-17T04:57:02.394Z,20.26
2022-08-17T04:58:05.484Z,20.28
2022-08-17T04:59:10.436Z,20.29
2022-08-17T05:00:13.103Z,20.29
2022-08-17T05:01:16.793Z,20.32
2022-08-17T05:02:25.767Z,20.32
2022-08-17T05:03:28.120Z,20.34
2022-08-17T05:04:34.122Z,20.36
2022-08-17T05:05:40.223Z,20.39
2022-08-17T05:06:42.464Z,20.39
2022-08-17T05:07:44.637Z,20.40
2022-08-17T05:08:46.884Z,20.44
2022-08-17T05:09:49.107Z,20.45
2022-08-17T05:10:52.186Z,20.47
2022-08-17T05:11:55.270Z,20.49
2022-08-17T05:13:11.726Z,20.51
2022-08-17T05:14:14.393Z,20.51
2022-08-17T05:15:16.582Z,20.53
2022-08-17T05:16:20.806Z,20.55
2022-08-17T05:17:23.021Z,20.57
2022-08-17T05:18:26.002Z,20.59
2022-08-17T05:19:30.424Z,20.61
2022-08-17T05:20:33.890Z,20.63
2022-08-17T05:21:36.114Z,20.66
2022-08-17T05:22:49.502Z,20.69
2022-08-17T05:23:54.921Z,20.72
2022-08-17T05:24:58.562Z,20.78
2022-08-17T05:26:04.356Z,20.83
2022-08-17T05:27:10.110Z,20.87
2022-08-17T05:28:24.092Z,20.96
2022-08-17T05:29:35.260Z,21.01
2022-08-17T05:30:40.847Z,21.10
2022-08-17T05:31:43.025Z,21.16
2022-08-17T05:33:03.457Z,21.26
2022-08-17T05:34:05.666Z,21.35
2022-08-17T05:35:08.318Z,21.44
2022-08-17T05:36:37.900Z,21.53
2022-08-17T05:37:36.150Z,21.66
2022-08-17T05:38:38.536Z,21.73
2022-08-17T05:39:40.820Z,21.84
2022-08-17T05:40:44.145Z,21.93
2022-08-17T05:41:48.204Z,22.03
2022-08-17T05:42:50.871Z,22.13
2022-08-17T05:43:56.430Z,22.25
2022-08-17T05:44:59.047Z,22.35
2022-08-17T05:46:07.891Z,22.46
2022-08-17T05:47:10.229Z,22.59
2022-08-17T05:48:12.891Z,22.70
2022-08-17T05:49:18.012Z,22.83
2022-08-17T05:50:29.865Z,22.95
2022-08-17T05:51:59.498Z,23.12
2022-08-17T05:53:15.433Z,23.26
2022-08-17T05:54:46.243Z,23.40
2022-08-17T05:55:59.258Z,23.55
2022-08-17T05:57:39.585Z,23.73
2022-08-17T05:58:57.093Z,23.90
2022-08-17T06:00:26.446Z,24.03
2022-08-17T06:02:01.299Z,24.23
2022-08-17T06:03:27.302Z,24.38
2022-08-17T06:04:48.364Z,24.57
2022-08-17T06:06:18.382Z,24.72
2022-08-17T06:07:52.599Z,24.87
2022-08-17T06:09:33.031Z,25.05
2022-08-17T06:10:59.609Z,25.23
2022-08-17T06:12:22.485Z,25.35
2022-08-17T06:13:45.090Z,25.47
2022-08-17T06:15:32.696Z,25.63
2022-08-17T06:16:39.770Z,25.78
2022-08-17T06:17:43.310Z,25.88
2022-08-17T06:18:53.093Z,25.99
2022-08-17T06:20:03.970Z,26.09
2022-08-17T06:21:11.893Z,26.22
2022-08-17T06:22:16.537Z,26.32
2022-08-17T06:23:38.788Z,26.45
2022-08-17T06:24:56.960Z,26.58
2022-08-17T06:26:05.810Z,26.71
2022-08-17T06:27:27.540Z,26.82
2022-08-17T06:28:40.327Z,26.97
2022-08-17T06:29:53.993Z,27.10
2022-08-17T06:31:02.552Z,27.22
2022-08-17T06:32:08.562Z,27.35
2022-08-17T06:33:19.412Z,27.46
2022-08-17T06:34:21.836Z,27.58
2022-08-17T06:35:37.939Z,27.70
2022-08-17T06:37:19.877Z,27.87
2022-08-17T06:38:37.629Z,28.01
2022-08-17T06:40:15.999Z,28.20
2022-08-17T06:41:56.713Z,28.36
2022-08-17T06:43:12.852Z,28.53
2022-08-17T06:44:43.551Z,28.63
2022-08-17T06:45:57.565Z,28.82
2022-08-17T06:47:28.049Z,28.96
2022-08-17T06:48:40.671Z,29.13
2022-08-17T06:49:57.776Z,29.26
2022-08-17T06:51:40.617Z,29.43
2022-08-17T06:52:55.217Z,29.59
2022-08-17T06:54:12.749Z,29.72
2022-08-17T06:55:23.420Z,29.85
2022-08-17T06:57:02.562Z,29.98
2022-08-17T06:58:16.413Z,30.11
2022-08-17T06:59:34.775Z,30.24
2022-08-17T07:00:55.376Z,30.35
2022-08-17T07:02:05.701Z,30.43
2022-08-17T07:03:08.248Z,30.54
2022-08-17T07:04:12.361Z,30.63
2022-08-17T07:05:18.460Z,30.72
2022-08-17T07:06:39.466Z,30.84
2022-08-17T07:08:02.007Z,30.91
2022-08-17T07:09:08.010Z,31.02
2022-08-17T07:10:11.715Z,31.09
2022-08-17T07:11:23.688Z,31.20
2022-08-17T07:12:30.254Z,31.30
2022-08-17T07:13:51.698Z,31.41
2022-08-17T07:15:12.809Z,31.50
2022-08-17T07:16:24.380Z,31.61
2022-08-17T07:17:46.722Z,31.68
2022-08-17T07:18:53.174Z,31.79
2022-08-17T07:20:06.306Z,31.88
2022-08-17T07:21:20.736Z,31.96
2022-08-17T07:22:53.582Z,32.05
2022-08-17T07:24:29.520Z,32.18
2022-08-17T07:25:33.193Z,32.28
2022-08-17T07:26:35.448Z,32.34
2022-08-17T07:27:45.972Z,32.43
2022-08-17T07:28:48.257Z,32.51
2022-08-17T07:30:10.860Z,32.61
2022-08-17T07:31:17.213Z,32.69
2022-08-17T07:32:24.901Z,32.80
2022-08-17T07:33:34.354Z,32.89
2022-08-17T07:35:15.162Z,33.00
2022-08-17T07:36:29.852Z,33.12
2022-08-17T07:37:33.465Z,33.21
2022-08-17T07:38:35.742Z,33.31
2022-08-17T07:39:58.842Z,33.38
2022-08-17T07:41:05.323Z,33.51
2022-08-17T07:42:11.753Z,33.62
2022-08-17T07:43:34.917Z,33.69
2022-08-17T07:44:56.052Z,33.82
2022-08-17T07:46:37.064Z,33.91
2022-08-17T07:47:57.938Z,34.01
2022-08-17T07:49:03.586Z,34.12
2022-08-17T07:50:25.951Z,34.23
2022-08-17T07:51:36.230Z,34.31
2022-08-17T07:52:51.714Z,34.39
2022-08-17T07:54:16.669Z,34.53
2022-08-17T07:55:29.503Z,34.63
2022-08-17T07:56:52.591Z,34.73
2022-08-17T07:57:57.571Z,34.83
2022-08-17T07:59:16.178Z,34.92
2022-08-17T08:00:24.358Z,35.00
2022-08-17T08:01:39.676Z,35.09
2022-08-17T08:02:47.713Z,35.17
2022-08-17T08:03:52.627Z,35.23
2022-08-17T08:05:13.082Z,35.33
2022-08-17T08:06:22.849Z,35.41
2022-08-17T08:07:32.367Z,35.48
2022-08-17T08:08:50.536Z,35.57
2022-08-17T08:10:30.586Z,35.68
2022-08-17T08:11:39.269Z,35.78
2022-08-17T08:12:48.982Z,35.87
2022-08-17T08:14:03.532Z,35.95
2022-08-17T08:15:25.767Z,36.03
2022-08-17T08:16:31.911Z,36.10
2022-08-17T08:17:45.206Z,36.18
2022-08-17T08:18:56.038Z,36.26
2022-08-17T08:20:01.093Z,36.31
2022-08-17T08:21:36.666Z,36.40
2022-08-17T08:23:06.450Z,36.46
2022-08-17T08:24:43.656Z,36.56
2022-08-17T08:26:05.527Z,36.62
2022-08-17T08:27:32.875Z,36.66
2022-08-17T08:29:01.658Z,36.73
2022-08-17T08:30:15.425Z,36.79
2022-08-17T08:31:24.550Z,36.83
2022-08-17T08:32:39.661Z,36.86
2022-08-17T08:33:58.434Z,36.89
2022-08-17T08:35:22.836Z,36.93
2022-08-17T08:37:14.050Z,36.95
2022-08-17T08:38:28.297Z,36.97
2022-08-17T08:39:47.446Z,36.98
2022-08-17T08:41:02.670Z,37.00
2022-08-17T08:42:42.192Z,37.02
2022-08-17T08:44:11.707Z,37.05
2022-08-17T08:45:22.068Z,37.05
2022-08-17T08:46:36.906Z,37.06
2022-08-17T08:47:54.112Z,37.08
2022-08-17T08:49:10.177Z,37.10
2022-08-17T08:50:48.312Z,37.11
2022-08-17T08:52:04.029Z,37.12
2022-08-17T08:53:32.173Z,37.14
2022-08-17T08:55:07.649Z,37.17
2022-08-17T08:56:24.924Z,37.17
2022-08-17T08:57:36.268Z,37.18
2022-08-17T08:59:09.624Z,37.18
2022-08-17T09:00:19.265Z,37.17
2022-08-17T09:01:59.961Z,37.19
2022-08-17T09:03:37.626Z,37.17
2022-08-17T09:05:20.369Z,37.15
2022-08-17T09:06:28.753Z,37.13
2022-08-17T09:08:05.991Z,37.13
2022-08-17T09:09:24.459Z,37.10
2022-08-17T09:10:42.049Z,37.11
2022-08-17T09:12:01.938Z,37.13
2022-08-17T09:13:22.182Z,37.14
2022-08-17T09:14:50.628Z,37.16
2022-08-17T09:16:05.258Z,37.18
2022-08-17T09:17:18.478Z,37.20
2022-08-17T09:18:59.956Z,37.23
2022-08-17T09:20:27.929Z,37.26
2022-08-17T09:21:52.723Z,37.29
2022-08-17T09:23:04.390Z,37.30
2022-08-17T09:24:14.261Z,37.31
2022-08-17T09:25:31.824Z,37.34
2022-08-17T09:26:48.937Z,37.37
2022-08-17T09:28:19.431Z,37.37
2022-08-17T09:29:25.645Z,37.38
2022-08-17T09:30:45.561Z,37.37
2022-08-17T09:31:55.234Z,37.40
2022-08-17T09:33:04.648Z,37.41
2022-08-17T09:34:22.172Z,37.43
2022-08-17T09:35:43.854Z,37.44
2022-08-17T09:36:57.820Z,37.44
2022-08-17T09:38:46.494Z,37.47
2022-08-17T09:40:02.341Z,37.44
2022-08-17T09:41:38.151Z,37.45
2022-08-17T09:42:56.381Z,37.43
2022-08-17T09:44:23.263Z,37.42
2022-08-17T09:45:31.905Z,37.40
2022-08-17T09:46:43.635Z,37.39
2022-08-17T09:48:00.082Z,37.38
2022-08-17T09:49:02.225Z,37.36
2022-08-17T09:50:15.615Z,37.35
2022-08-17T09:51:40.278Z,37.32
2022-08-17T09:52:43.811Z,37.31
2022-08-17T09:53:46.159Z,37.29
2022-08-17T09:54:51.807Z,37.27
2022-08-17T09:56:17.394Z,37.25
2022-08-17T09:57:50.238Z,37.23
2022-08-17T09:59:14.886Z,37.21
2022-08-17T10:00:23.888Z,37.20
2022-08-17T10:01:48.406Z,37.20
2022-08-17T10:03:26.108Z,37.19
2022-08-17T10:04:41.346Z,37.17
2022-08-17T10:05:56.445Z,37.16
2022-08-17T10:07:21.914Z,37.14
2022-08-17T10:08:48.069Z,37.12
2022-08-17T10:10:15.224Z,37.11
2022-08-17T10:12:03.219Z,37.11
2022-08-17T10:13:19.921Z,37.11
2022-08-17T10:14:44.378Z,37.11
2022-08-17T10:16:03.485Z,37.09
2022-08-17T10:17:27.493Z,37.08
2022-08-17T10:18:39.205Z,37.05
2022-08-17T10:19:50.274Z,37.06
2022-08-17T10:21:20.931Z,37.03
2022-08-17T10:22:54.816Z,37.01
2022-08-17T10:24:36.360Z,37.02
2022-08-17T10:26:04.255Z,37.02
2022-08-17T10:27:13.564Z,37.01
2022-08-17T10:28:25.799Z,36.97
2022-08-17T10:29:47.263Z,36.96
2022-08-17T10:31:16.791Z,36.95
2022-08-17T10:32:35.216Z,36.94
2022-08-17T10:33:55.518Z,36.91
2022-08-17T10:35:14.644Z,36.89
2022-08-17T10:36:31.979Z,36.90
2022-08-17T10:38:12.227Z,36.88
2022-08-17T10:39:52.232Z,36.87
2022-08-17T10:41:20.532Z,36.87
2022-08-17T10:42:37.717Z,36.83
2022-08-17T10:44:37.560Z,36.82
2022-08-17T10:45:48.980Z,36.79
2022-08-17T10:47:15.494Z,36.78
2022-08-17T10:48:40.421Z,36.78
2022-08-17T10:49:54.350Z,36.79
2022-08-17T10:50:58.064Z,36.79
2022-08-17T10:52:03.788Z,36.80
2022-08-17T10:53:07.142Z,36.80
2022-08-17T10:54:24.560Z,36.80
2022-08-17T10:55:26.849Z,36.80
2022-08-17T10:56:46.556Z,36.78
2022-08-17T10:57:50.782Z,36.75
2022-08-17T10:58:58.429Z,36.73
2022-08-17T11:00:25.622Z,36.71
2022-08-17T11:01:32.777Z,36.66
2022-08-17T11:02:41.415Z,36.64
2022-08-17T11:04:07.134Z,36.61
2022-08-17T11:05:16.746Z,36.58
2022-08-17T11:06:32.930Z,36.55
2022-08-17T11:07:54.435Z,36.49
2022-08-17T11:08:57.673Z,36.43
2022-08-17T11:10:26.433Z,36.37
2022-08-17T11:12:07.281Z,36.31
2022-08-17T11:13:21.926Z,36.25
2022-08-17T11:14:37.911Z,36.20
2022-08-17T11:15:57.629Z,36.13
2022-08-17T11:17:39.915Z,36.06
2022-08-17T11:19:25.203Z,35.97
2022-08-17T11:20:38.154Z,35.91
2022-08-17T11:21:55.248Z,35.88
2022-08-17T11:23:26.953Z,35.83
2022-08-17T11:24:39.020Z,35.79
2022-08-17T11:25:51.506Z,35.77
2022-08-17T11:27:26.706Z,35.75
2022-08-17T11:28:36.035Z,35.75
2022-08-17T11:29:58.166Z,35.73
2022-08-17T11:31:38.661Z,35.72
2022-08-17T11:32:52.948Z,35.72
2022-08-17T11:34:02.533Z,35.76
2022-08-17T11:35:21.530Z,35.74
2022-08-17T11:36:35.656Z,35.75
2022-08-17T11:37:53.466Z,35.73
2022-08-17T11:39:19.545Z,35.74
2022-08-17T11:41:15.238Z,35.74
2022-08-17T11:42:59.872Z,35.72
2022-08-17T11:44:04.910Z,35.71
2022-08-17T11:45:32.547Z,35.70
2022-08-17T11:47:28.030Z,35.70
2022-08-17T11:49:14.291Z,35.68
2022-08-17T11:50:56.895Z,35.68
2022-08-17T11:52:01.094Z,35.68
2022-08-17T11:53:04.042Z,35.68
2022-08-17T11:54:33.668Z,35.67
2022-08-17T11:55:43.124Z,35.67
2022-08-17T11:56:50.065Z,35.66
2022-08-17T11:58:02.494Z,35.67
2022-08-17T11:59:32.821Z,35.64
2022-08-17T12:00:49.993Z,35.62
2022-08-17T12:01:57.312Z,35.63
2022-08-17T12:03:33.485Z,35.62
2022-08-17T12:04:36.138Z,35.60
2022-08-17T12:05:38.814Z,35.59
2022-08-17T12:06:48.402Z,35.59
2022-08-17T12:08:16.028Z,35.59
2022-08-17T12:09:22.156Z,35.58
2022-08-17T12:10:32.053Z,35.58
2022-08-17T12:12:01.607Z,35.58
2022-08-17T12:13:15.602Z,35.59
2022-08-17T12:14:45.055Z,35.59
2022-08-17T12:15:52.954Z,35.59
2022-08-17T12:17:03.473Z,35.59
2022-08-17T12:18:05.710Z,35.57
2022-08-17T12:19:20.155Z,35.57
2022-08-17T12:20:33.454Z,35.55
2022-08-17T12:21:40.768Z,35.54
2022-08-17T12:23:25.916Z,35.54
2022-08-17T12:24:40.842Z,35.53
2022-08-17T12:26:04.499Z,35.52
2022-08-17T12:27:10.949Z,35.51
2022-08-17T12:28:27.075Z,35.51
2022-08-17T12:29:35.718Z,35.48
2022-08-17T12:30:49.714Z,35.47
2022-08-17T12:31:55.206Z,35.47
2022-08-17T12:32:57.473Z,35.45
2022-08-17T12:34:00.636Z,35.42
2022-08-17T12:35:23.967Z,35.37
2022-08-17T12:36:28.775Z,35.31
2022-08-17T12:37:34.737Z,35.29
2022-08-17T12:38:38.182Z,35.28
2022-08-17T12:40:06.284Z,35.25
2022-08-17T12:41:28.401Z,35.24
2022-08-17T12:42:37.719Z,35.22
2022-08-17T12:43:39.942Z,35.19
2022-08-17T12:44:50.146Z,35.19
2022-08-17T12:46:12.956Z,35.17
2022-08-17T12:47:22.726Z,35.15
2022-08-17T12:48:28.372Z,35.15
2022-08-17T12:49:39.474Z,35.15
2022-08-17T12:50:46.644Z,35.15
2022-08-17T12:51:51.564Z,35.14
2022-08-17T12:52:59.661Z,35.14
2022-08-17T12:54:04.297Z,35.13
2022-08-17T12:55:21.276Z,35.13
2022-08-17T12:56:23.803Z,35.13
2022-08-17T12:57:34.825Z,35.13
2022-08-17T12:58:49.105Z,35.12
2022-08-17T13:00:07.969Z,35.11
2022-08-17T13:01:16.493Z,35.09
2022-08-17T13:02:29.032Z,35.09
2022-08-17T13:03:43.987Z,35.07
2022-08-17T13:04:54.152Z,35.06
2022-08-17T13:06:03.709Z,35.05
2022-08-17T13:07:06.080Z,35.04
2022-08-17T13:08:16.100Z,35.04
2022-08-17T13:09:23.509Z,35.05
2022-08-17T13:10:38.160Z,35.05
2022-08-17T13:11:55.307Z,35.05
2022-08-17T13:12:58.247Z,35.05
2022-08-17T13:14:09.921Z,35.05
2022-08-17T13:15:26.525Z,35.06
2022-08-17T13:16:31.607Z,35.07
2022-08-17T13:17:36.391Z,35.06
2022-08-17T13:18:53.429Z,35.05
2022-08-17T13:19:56.021Z,35.05
2022-08-17T13:21:00.180Z,35.04
2022-08-17T13:22:04.227Z,35.01
2022-08-17T13:23:12.359Z,35.00
2022-08-17T13:24:23.019Z,34.99
2022-08-17T13:25:26.701Z,34.98
2022-08-17T13:27:01.266Z,34.97
2022-08-17T13:28:30.618Z,34.94
2022-08-17T13:29:44.775Z,34.93
2022-08-17T13:30:47.858Z,34.91
2022-08-17T13:31:56.641Z,34.90
2022-08-17T13:33:43.273Z,34.87
2022-08-17T13:35:12.131Z,34.86
2022-08-17T13:36:10.802Z,34.83
2022-08-17T13:37:29.127Z,34.82
2022-08-17T13:38:40.569Z,34.81
2022-08-17T13:39:44.349Z,34.81
2022-08-17T13:40:53.313Z,34.78
2022-08-17T13:41:56.212Z,34.79
2022-08-17T13:42:59.192Z,34.77
2022-08-17T13:44:01.847Z,34.77
2022-08-17T13:45:39.595Z,34.76
2022-08-17T13:46:52.474Z,34.75
2022-08-17T13:48:25.733Z,34.75
2022-08-17T13:49:42.073Z,34.77
2022-08-17T13:50:57.257Z,34.76
2022-08-17T13:51:59.522Z,34.77
2022-08-17T13:53:23.709Z,34.78
2022-08-17T13:54:31.906Z,34.78
2022-08-17T13:55:34.169Z,34.79
2022-08-17T13:56:42.980Z,34.79
2022-08-17T13:57:48.474Z,34.78
2022-08-17T13:59:03.654Z,34.77
2022-08-17T14:00:31.798Z,34.76
2022-08-17T14:01:54.117Z,34.76
2022-08-17T14:02:58.181Z,34.76
2022-08-17T14:04:05.921Z,34.74
2022-08-17T14:05:09.748Z,34.74
2022-08-17T14:06:13.188Z,34.73
2022-08-17T14:07:32.536Z,34.71
2022-08-17T14:08:37.430Z,34.71
2022-08-17T14:09:53.942Z,34.70
2022-08-17T14:10:58.611Z,34.68
2022-08-17T14:12:02.966Z,34.69
2022-08-17T14:13:07.355Z,34.67
2022-08-17T14:14:09.528Z,34.67
2022-08-17T14:15:17.644Z,34.67
2022-08-17T14:16:20.800Z,34.66
2022-08-17T14:17:24.362Z,34.65
2022-08-17T14:18:56.125Z,34.65
2022-08-17T14:19:49.970Z,34.64
2022-08-17T14:20:53.811Z,34.64
2022-08-17T14:21:58.973Z,34.64
2022-08-17T14:23:01.240Z,34.61
2022-08-17T14:24:04.034Z,34.61
2022-08-17T14:25:10.364Z,34.60
2022-08-17T14:26:13.252Z,34.60
2022-08-17T14:27:18.115Z,34.58
2022-08-17T14:28:22.524Z,34.58
2022-08-17T14:29:27.964Z,34.56
2022-08-17T14:30:30.919Z,34.54
2022-08-17T14:31:37.435Z,34.54
2022-08-17T14:32:44.973Z,34.52
2022-08-17T14:33:47.143Z,34.52
2022-08-17T14:34:49.891Z,34.51
2022-08-17T14:35:53.650Z,34.50
2022-08-17T14:36:57.081Z,34.48
2022-08-17T14:37:59.354Z,34.46
2022-08-17T14:39:01.568Z,34.44
2022-08-17T14:40:11.070Z,34.43
2022-08-17T14:41:13.345Z,34.40
2022-08-17T14:42:17.661Z,34.37
2022-08-17T14:43:21.081Z,34.35
2022-08-17T14:44:23.276Z,34.33
2022-08-17T14:45:31.874Z,34.31
2022-08-17T14:46:34.677Z,34.30
2022-08-17T14:47:38.567Z,34.28
2022-08-17T14:48:41.013Z,34.25
2022-08-17T14:49:43.836Z,34.24
2022-08-17T14:50:52.208Z,34.20
2022-08-17T14:51:54.452Z,34.18
2022-08-17T14:52:58.084Z,34.16
2022-08-17T14:54:00.486Z,34.13
2022-08-17T14:55:02.771Z,34.10
2022-08-17T14:56:05.028Z,34.08
2022-08-17T14:57:24.843Z,34.05
2022-08-17T14:58:29.827Z,34.01
2022-08-17T14:59:32.096Z,33.99
2022-08-17T15:00:34.639Z,33.97
2022-08-17T15:01:36.981Z,33.94
2022-08-17T15:02:58.282Z,33.91
2022-08-17T15:04:00.464Z,33.88
2022-08-17T15:05:06.321Z,33.85
2022-08-17T15:06:09.661Z,33.84
2022-08-17T15:07:11.868Z,33.83
2022-08-17T15:08:16.726Z,33.80
2022-08-17T15:09:21.341Z,33.76
2022-08-17T15:10:25.970Z,33.74
2022-08-17T15:11:28.302Z,33.72
2022-08-17T15:12:34.785Z,33.70
2022-08-17T15:13:37.286Z,33.68
2022-08-17T15:14:55.350Z,33.65
2022-08-17T15:15:59.355Z,33.64
2022-08-17T15:17:04.815Z,33.63
2022-08-17T15:18:08.424Z,33.60
2022-08-17T15:19:10.762Z,33.59
2022-08-17T15:20:33.553Z,33.56
2022-08-17T15:21:36.277Z,33.54
2022-08-17T15:22:41.068Z,33.53
2022-08-17T15:23:43.256Z,33.52
2022-08-17T15:24:45.871Z,33.50
2022-08-17T15:25:50.630Z,33.48
2022-08-17T15:26:52.850Z,33.47
2022-08-17T15:27:56.101Z,33.45